createdAt,value
2018-07-12T00:00:15.365Z,58.83
2018-07-12T00:02:43.973Z,51.53
2018-07-12T00:05:12.751Z,50.97
2018-07-12T00:07:42.245Z,54.30
2018-07-12T00:10:10.906Z,49.10
2018-07-12T00:12:39.477Z,55.13
2018-07-12T00:15:08.442Z,52.10
2018-07-12T00:17:37.041Z,44.13
2018-07-12T00:20:05.734Z,51.47
2018-07-12T00:22:34.533Z,53.60
2018-07-12T00:25:03.569Z,50.57
2018-07-12T00:27:32.309Z,45.30
2018-07-12T00:30:00.921Z,45.63
2018-07-12T00:32:29.825Z,50.83
2018-07-12T00:34:58.781Z,44.67
2018-07-12T00:37:27.708Z,44.60
2018-07-12T00:39:56.556Z,43.10
2018-07-12T00:42:26.293Z,50.00
2018-07-12T00:44:55.022Z,44.83
2018-07-12T00:47:23.646Z,41.97
2018-07-12T00:49:52.265Z,44.23
2018-07-12T00:52:20.874Z,53.17
2018-07-12T00:54:49.830Z,44.37
2018-07-12T00:57:18.446Z,45.23
2018-07-12T00:59:47.020Z,49.33
2018-07-12T01:02:16.133Z,47.80
2018-07-12T01:04:44.705Z,47.10
2018-07-12T01:07:13.277Z,49.10
2018-07-12T01:09:42.169Z,47.63
2018-07-12T01:12:10.785Z,55.53
2018-07-12T01:14:39.361Z,46.87
2018-07-12T01:17:07.925Z,50.97
2018-07-12T01:19:36.829Z,51.83
2018-07-12T01:22:05.425Z,47.27
2018-07-12T01:24:34.471Z,45.03
2018-07-12T01:27:03.041Z,45.47
2018-07-12T01:29:31.617Z,51.87
2018-07-12T01:32:00.544Z,44.80
2018-07-12T01:34:30.090Z,41.03
2018-07-12T01:36:58.661Z,48.27
2018-07-12T01:39:27.249Z,47.63
2018-07-12T01:41:56.277Z,44.43
2018-07-12T01:44:24.945Z,48.40
2018-07-12T01:46:53.530Z,49.87
2018-07-12T01:49:22.425Z,48.23
2018-07-12T01:51:50.993Z,47.73
2018-07-12T01:54:19.978Z,52.90
2018-07-12T01:56:48.765Z,50.93
2018-07-12T01:59:17.378Z,48.50
2018-07-12T02:01:46.153Z,48.20
2018-07-12T02:04:15.737Z,50.70
2018-07-12T02:06:44.330Z,50.33
2018-07-12T02:09:12.908Z,59.27
2018-07-12T02:11:42.088Z,56.23
2018-07-12T02:14:10.738Z,56.47
2018-07-12T02:16:39.325Z,58.47
2018-07-12T02:19:08.369Z,50.13
2018-07-12T02:21:36.941Z,49.80
2018-07-12T02:24:05.703Z,56.97
2018-07-12T02:26:34.653Z,57.87
2018-07-12T02:29:03.239Z,49.00
2018-07-12T02:31:32.457Z,54.17
2018-07-12T02:34:01.346Z,60.30
2018-07-12T02:36:30.077Z,52.80
2018-07-12T02:38:59.153Z,54.53
2018-07-12T02:41:27.967Z,56.93
2018-07-12T02:43:56.621Z,69.07
2018-07-12T02:46:25.286Z,56.73
2018-07-12T02:48:54.434Z,52.27
2018-07-12T02:51:23.041Z,54.93
2018-07-12T02:53:51.621Z,56.27
2018-07-12T02:56:20.192Z,48.73
2018-07-12T02:58:48.793Z,63.03
2018-07-12T03:01:18.205Z,55.20
2018-07-12T03:03:46.857Z,62.20
2018-07-12T03:06:15.449Z,60.77
2018-07-12T03:08:44.674Z,67.87
2018-07-12T03:11:13.249Z,59.77
2018-07-12T03:13:41.826Z,74.83
2018-07-12T03:16:11.467Z,70.30
2018-07-12T03:18:40.184Z,71.47
2018-07-12T03:21:08.829Z,76.60
2018-07-12T03:23:37.810Z,67.53
2018-07-12T03:26:06.561Z,84.63
2018-07-12T03:28:35.249Z,70.43
2018-07-12T03:31:04.294Z,78.37
2018-07-12T03:33:32.889Z,75.60
2018-07-12T03:36:01.469Z,79.13
2018-07-12T03:38:30.225Z,78.00
2018-07-12T03:40:59.092Z,97.60
2018-07-12T03:43:28.109Z,94.37
2018-07-12T03:45:56.825Z,104.80
2018-07-12T03:48:25.406Z,110.33
2018-07-12T03:50:54.409Z,101.23
2018-07-12T03:53:22.990Z,118.33
2018-07-12T03:55:51.581Z,103.70
2018-07-12T03:58:20.788Z,110.97
2018-07-12T04:00:49.385Z,127.53
2018-07-12T04:03:17.977Z,118.33
2018-07-12T04:05:47.266Z,151.93
2018-07-12T04:11:47.370Z,143.80
2018-07-12T04:14:16.120Z,146.83
2018-07-12T04:16:44.769Z,135.93
2018-07-12T04:19:13.989Z,143.90
2018-07-12T04:21:42.562Z,144.40
2018-07-12T04:24:11.335Z,157.40
2018-07-12T04:26:40.054Z,141.13
2018-07-12T04:29:08.673Z,131.40
2018-07-12T04:31:37.686Z,158.63
2018-07-12T04:34:06.273Z,128.70
2018-07-12T04:36:34.987Z,152.40
2018-07-12T04:39:04.241Z,151.63
2018-07-12T04:41:33.158Z,150.43
2018-07-12T04:44:01.873Z,152.10
2018-07-12T04:46:31.313Z,143.60
2018-07-12T04:48:59.869Z,137.03
2018-07-12T04:51:28.551Z,137.47
2018-07-12T04:53:57.153Z,136.93
2018-07-12T04:56:26.089Z,133.23
2018-07-12T04:58:54.680Z,125.37
2018-07-12T05:01:23.257Z,116.97
2018-07-12T05:03:51.916Z,116.67
2018-07-12T05:06:20.601Z,105.30
2018-07-12T05:08:49.462Z,110.03
2018-07-12T05:11:21.231Z,86.73
2018-07-12T05:13:50.913Z,80.20
2018-07-12T05:16:19.820Z,74.53
2018-07-12T05:18:48.968Z,75.17
2018-07-12T05:21:17.673Z,78.17
2018-07-12T05:23:46.602Z,63.73
2018-07-12T05:26:15.133Z,66.73
2018-07-12T05:28:43.816Z,59.33
2018-07-12T05:31:12.838Z,56.20
2018-07-12T05:33:41.834Z,75.93
2018-07-12T05:37:21.303Z,51.87
2018-07-12T05:39:52.013Z,62.10
2018-07-12T05:42:22.670Z,49.70
2018-07-12T05:44:52.980Z,78.67
2018-07-12T05:47:24.832Z,55.63
2018-07-12T05:49:55.629Z,44.53
2018-07-12T05:52:26.194Z,43.30
2018-07-12T05:54:57.241Z,41.63
2018-07-12T05:57:28.053Z,39.50
2018-07-12T05:59:58.726Z,45.53
2018-07-12T06:02:29.737Z,39.93
2018-07-12T06:05:00.403Z,38.57
2018-07-12T06:07:56.411Z,32.33
2018-07-12T06:10:27.262Z,29.30
2018-07-12T06:12:57.989Z,27.07
2018-07-12T06:15:28.653Z,29.23
2018-07-12T06:17:59.357Z,27.57
2018-07-12T06:20:29.960Z,27.90
2018-07-12T06:23:00.990Z,22.37
2018-07-12T06:25:31.630Z,23.57
2018-07-12T06:28:02.642Z,21.70
2018-07-12T06:30:33.313Z,23.67
2018-07-12T06:33:04.553Z,26.13
2018-07-12T06:35:35.177Z,27.20
2018-07-12T06:38:06.239Z,24.40
2018-07-12T06:40:36.829Z,24.03
2018-07-12T06:43:07.363Z,27.27
2018-07-12T06:45:37.942Z,25.20
2018-07-12T06:48:11.762Z,26.50
2018-07-12T06:50:41.790Z,26.87
2018-07-12T06:53:13.091Z,24.77
2018-07-12T06:55:44.095Z,29.73
2018-07-12T06:58:14.725Z,29.87
2018-07-12T07:00:45.357Z,27.83
2018-07-12T07:03:16.430Z,26.63
2018-07-12T07:05:48.310Z,25.73
2018-07-12T07:08:20.867Z,23.27
2018-07-12T07:10:51.398Z,23.30
2018-07-12T07:13:21.971Z,22.73
2018-07-12T07:15:52.638Z,49.40
2018-07-12T07:18:24.234Z,24.60
2018-07-12T07:21:12.181Z,18.17
2018-07-12T07:23:45.181Z,19.77
2018-07-12T07:26:16.205Z,19.90
2018-07-12T07:28:46.915Z,19.10
2018-07-12T07:31:17.503Z,17.13
2018-07-12T07:33:48.032Z,16.47
2018-07-12T07:36:20.099Z,20.00
2018-07-12T07:38:50.634Z,16.60
2018-07-12T07:41:21.286Z,16.90
2018-07-12T07:43:52.627Z,15.97
2018-07-12T07:46:23.372Z,14.67
2018-07-12T07:48:54.405Z,12.37
2018-07-12T07:51:25.622Z,14.63
2018-07-12T07:53:56.458Z,15.63
2018-07-12T07:56:27.154Z,15.17
2018-07-12T07:58:58.006Z,13.67
2018-07-12T08:01:29.839Z,10.47
2018-07-12T08:04:00.607Z,10.63
2018-07-12T08:06:30.878Z,10.80
2018-07-12T08:09:01.474Z,13.00
2018-07-12T08:11:32.681Z,11.13
2018-07-12T08:14:03.587Z,9.43
2018-07-12T08:16:34.721Z,9.93
2018-07-12T08:19:05.429Z,10.40
2018-07-12T08:21:35.937Z,12.50
2018-07-12T08:24:06.736Z,10.10
2018-07-12T08:26:37.566Z,9.07
2018-07-12T08:29:10.523Z,10.37
2018-07-12T08:31:41.353Z,8.83
2018-07-12T08:34:13.286Z,8.60
2018-07-12T08:36:44.193Z,8.57
2018-07-12T08:39:15.001Z,7.20
2018-07-12T08:41:46.274Z,12.10
2018-07-12T08:44:16.803Z,7.77
2018-07-12T08:46:48.060Z,11.27
2018-07-12T08:49:19.377Z,8.77
2018-07-12T08:51:50.097Z,7.60
2018-07-12T08:54:26.979Z,9.30
2018-07-12T08:57:03.661Z,5.17
2018-07-12T08:59:34.546Z,5.87
2018-07-12T09:02:05.105Z,4.50
2018-07-12T09:04:36.086Z,7.07
2018-07-12T09:07:06.643Z,7.03
2018-07-12T09:09:37.141Z,8.83
2018-07-12T09:12:08.169Z,9.07
2018-07-12T09:14:39.925Z,8.17
2018-07-12T09:17:10.729Z,7.80
2018-07-12T09:19:41.824Z,7.33
2018-07-12T09:22:12.536Z,6.33
2018-07-12T09:24:43.433Z,4.70
2018-07-12T09:27:14.313Z,9.27
2018-07-12T09:29:45.010Z,6.83
2018-07-12T09:32:15.688Z,8.43
2018-07-12T09:34:46.452Z,5.13
2018-07-12T09:37:17.106Z,4.23
2018-07-12T09:39:47.749Z,5.97
2018-07-12T09:42:18.313Z,6.63
2018-07-12T09:44:49.305Z,12.57
2018-07-12T09:47:20.365Z,6.03
2018-07-12T09:49:51.293Z,5.20
2018-07-12T09:52:26.833Z,6.53
2018-07-12T09:54:58.185Z,5.83
2018-07-12T09:57:39.442Z,4.83
2018-07-12T10:00:10.047Z,4.70
2018-07-12T10:02:46.165Z,4.00
2018-07-12T10:07:28.610Z,5.00
2018-07-12T10:10:00.731Z,4.80
2018-07-12T10:12:41.501Z,6.43
2018-07-12T10:15:12.904Z,5.13
2018-07-12T10:17:52.188Z,4.03
2018-07-12T10:20:22.865Z,6.83
2018-07-12T10:22:56.018Z,4.43
2018-07-12T10:25:30.467Z,4.67
2018-07-12T10:28:02.789Z,4.90
2018-07-12T10:30:33.277Z,3.80
2018-07-12T10:33:05.198Z,6.07
2018-07-12T10:35:38.089Z,4.37
2018-07-12T10:38:10.683Z,3.17
2018-07-12T10:40:50.031Z,5.70
2018-07-12T10:43:21.993Z,3.07
2018-07-12T10:45:55.081Z,6.20
2018-07-12T10:48:26.147Z,3.73
2018-07-12T10:50:56.825Z,3.30
2018-07-12T10:53:27.863Z,3.00
2018-07-12T10:55:58.389Z,4.33
2018-07-12T10:58:29.000Z,3.93
2018-07-12T11:00:59.890Z,6.00
2018-07-12T11:03:30.557Z,5.20
2018-07-12T11:06:01.106Z,3.13
2018-07-12T11:08:31.723Z,6.20
2018-07-12T11:11:02.273Z,5.50
2018-07-12T11:13:43.852Z,4.70
2018-07-12T11:16:14.457Z,5.10
2018-07-12T11:18:44.989Z,5.47
2018-07-12T11:21:16.211Z,4.23
2018-07-12T11:23:48.868Z,6.80
2018-07-12T11:26:20.157Z,3.87
2018-07-12T11:28:51.213Z,3.20
2018-07-12T11:31:21.873Z,4.33
2018-07-12T11:33:52.983Z,3.33
2018-07-12T11:36:23.627Z,4.00
2018-07-12T11:38:54.710Z,4.27
2018-07-12T11:41:25.274Z,3.53
2018-07-12T11:43:55.771Z,5.73
2018-07-12T11:46:26.912Z,3.53
2018-07-12T11:48:57.890Z,4.27
2018-07-12T11:51:30.667Z,5.63
2018-07-12T11:54:01.440Z,4.43
2018-07-12T11:56:31.551Z,3.60
2018-07-12T11:59:02.561Z,3.83
2018-07-12T12:01:33.184Z,4.30
2018-07-12T12:04:03.932Z,5.53
2018-07-12T12:06:34.495Z,4.07
2018-07-12T12:09:05.556Z,4.80
2018-07-12T12:11:36.098Z,4.17
2018-07-12T12:14:06.747Z,4.60
2018-07-12T12:16:37.370Z,4.80
2018-07-12T12:19:08.244Z,3.37
2018-07-12T12:21:40.240Z,4.67
2018-07-12T12:24:11.048Z,4.17
2018-07-12T12:26:41.757Z,5.63
2018-07-12T12:29:12.816Z,4.53
2018-07-12T12:31:44.932Z,6.23
2018-07-12T12:34:15.629Z,3.63
2018-07-12T12:36:48.793Z,4.00
2018-07-12T12:39:20.034Z,4.13
2018-07-12T12:41:51.447Z,3.70
2018-07-12T12:44:22.311Z,5.90
2018-07-12T12:46:52.896Z,3.57
2018-07-12T12:49:24.554Z,4.10
2018-07-12T12:51:55.390Z,3.83
2018-07-12T12:54:28.644Z,4.60
2018-07-12T12:56:59.240Z,6.97
2018-07-12T12:59:31.050Z,5.43
2018-07-12T13:02:01.626Z,4.57
2018-07-12T13:04:32.280Z,4.80
2018-07-12T13:07:03.099Z,8.53
2018-07-12T13:09:34.208Z,6.90
2018-07-12T13:12:04.743Z,8.00
2018-07-12T13:14:35.426Z,6.83
2018-07-12T13:17:06.701Z,4.70
2018-07-12T13:19:37.342Z,4.67
2018-07-12T13:22:07.837Z,6.73
2018-07-12T13:24:38.732Z,6.03
2018-07-12T13:27:09.421Z,6.73
2018-07-12T13:29:40.207Z,7.90
2018-07-12T13:32:11.270Z,7.17
2018-07-12T13:34:42.255Z,8.93
2018-07-12T13:37:13.006Z,6.23
2018-07-12T13:39:43.950Z,5.53
2018-07-12T13:42:14.522Z,5.10
2018-07-12T13:44:45.342Z,7.20
2018-07-12T13:47:16.598Z,9.40
2018-07-12T13:49:47.457Z,6.33
2018-07-12T13:52:19.808Z,9.90
2018-07-12T13:54:52.668Z,6.37
2018-07-12T13:57:24.746Z,7.37
2018-07-12T13:59:59.817Z,8.80
2018-07-12T14:02:31.008Z,6.63
2018-07-12T14:05:01.607Z,6.03
2018-07-12T14:07:32.686Z,6.43
2018-07-12T14:10:04.228Z,4.67
2018-07-12T14:12:34.876Z,8.77
2018-07-12T14:15:05.993Z,5.83
2018-07-12T14:17:36.598Z,10.63
2018-07-12T14:20:07.351Z,7.20
2018-07-12T14:22:38.437Z,12.90
2018-07-12T14:25:09.601Z,11.00
2018-07-12T14:27:40.493Z,10.70
2018-07-12T14:30:11.950Z,11.13
2018-07-12T14:32:43.611Z,8.07
2018-07-12T14:35:16.943Z,11.63
2018-07-12T14:37:47.779Z,7.23
2018-07-12T14:40:22.153Z,5.73
2018-07-12T14:42:58.240Z,5.70
2018-07-12T14:45:30.366Z,6.43
2018-07-12T14:48:01.452Z,4.87
2018-07-12T14:50:32.070Z,5.53
2018-07-12T14:53:03.616Z,7.03
2018-07-12T14:55:35.396Z,5.53
2018-07-12T14:58:06.121Z,6.60
2018-07-12T15:00:38.122Z,8.00
2018-07-12T15:03:09.823Z,6.97
2018-07-12T15:05:42.396Z,9.17
2018-07-12T15:08:15.474Z,7.60
2018-07-12T15:10:48.728Z,9.50
2018-07-12T15:13:19.351Z,6.80
2018-07-12T15:15:51.291Z,9.00
2018-07-12T15:18:22.069Z,8.67
2018-07-12T15:20:54.707Z,11.73
2018-07-12T15:23:27.641Z,7.40
2018-07-12T15:26:00.227Z,7.90
2018-07-12T15:28:31.501Z,8.30
2018-07-12T15:31:02.146Z,6.60
2018-07-12T15:33:33.295Z,7.60
2018-07-12T15:37:06.672Z,7.67
2018-07-12T15:39:37.912Z,11.97
2018-07-12T15:42:09.730Z,5.87
2018-07-12T15:44:42.264Z,8.77
2018-07-12T15:47:13.125Z,8.47
2018-07-12T15:49:44.872Z,11.80
2018-07-12T15:52:15.809Z,8.13
2018-07-12T15:54:48.035Z,11.07
2018-07-12T15:57:19.564Z,8.13
2018-07-12T15:59:51.389Z,8.90
2018-07-12T16:02:22.767Z,9.97
2018-07-12T16:04:53.385Z,8.63
2018-07-12T16:07:24.388Z,10.90
2018-07-12T16:09:55.386Z,10.80
2018-07-12T16:12:27.694Z,9.17
2018-07-12T16:14:58.365Z,13.37
2018-07-12T16:17:28.909Z,10.60
2018-07-12T16:20:00.659Z,9.70
2018-07-12T16:22:31.864Z,8.90
2018-07-12T16:25:02.582Z,8.70
2018-07-12T16:27:33.959Z,10.23
2018-07-12T16:30:06.351Z,8.70
2018-07-12T16:32:37.119Z,8.57
2018-07-12T16:35:07.696Z,10.07
2018-07-12T16:37:43.166Z,6.43
2018-07-12T16:40:14.406Z,8.83
2018-07-12T16:42:47.293Z,7.57
2018-07-12T16:45:20.079Z,7.60
2018-07-12T16:47:50.827Z,7.73
2018-07-12T16:50:22.332Z,8.63
2018-07-12T16:52:53.117Z,9.43
2018-07-12T16:55:23.829Z,7.50
2018-07-12T16:57:54.719Z,8.00
2018-07-12T17:00:25.346Z,9.13
2018-07-12T17:02:56.769Z,7.10
2018-07-12T17:05:27.303Z,6.63
2018-07-12T17:07:58.141Z,3.67
2018-07-12T17:10:29.781Z,5.70
2018-07-12T17:13:01.538Z,7.03
2018-07-12T17:15:37.677Z,4.77
2018-07-12T17:18:09.256Z,6.10
2018-07-12T17:20:40.124Z,4.73
2018-07-12T17:23:11.653Z,5.30
2018-07-12T17:25:42.920Z,4.77
2018-07-12T17:28:14.089Z,4.80
2018-07-12T17:30:45.507Z,5.63
2018-07-12T17:33:20.279Z,6.83
2018-07-12T17:35:57.628Z,5.37
2018-07-12T17:38:29.352Z,7.90
2018-07-12T17:40:59.622Z,9.20
2018-07-12T17:43:34.393Z,4.50
2018-07-12T17:46:05.109Z,7.33
2018-07-12T17:48:36.885Z,9.00
2018-07-12T17:51:07.486Z,11.47
2018-07-12T17:53:38.313Z,7.00
2018-07-12T17:56:08.933Z,10.10
2018-07-12T17:58:40.021Z,7.97
2018-07-12T18:01:10.634Z,7.40
2018-07-12T18:03:42.798Z,5.80
2018-07-12T18:06:13.942Z,8.27
2018-07-12T18:08:45.596Z,10.83
2018-07-12T18:11:16.680Z,8.20
2018-07-12T18:13:47.706Z,13.17
2018-07-12T18:16:18.295Z,9.00
2018-07-12T18:18:49.156Z,9.40
2018-07-12T18:21:19.678Z,10.83
2018-07-12T18:23:51.305Z,11.47
2018-07-12T18:26:21.854Z,8.47
2018-07-12T18:28:53.388Z,11.57
2018-07-12T18:31:24.065Z,11.50
2018-07-12T18:33:55.537Z,13.70
2018-07-12T18:36:26.133Z,11.30
2018-07-12T18:38:56.677Z,12.77
2018-07-12T18:41:28.113Z,13.67
2018-07-12T18:43:59.672Z,11.07
2018-07-12T18:46:33.218Z,15.10
2018-07-12T18:49:05.538Z,12.53
2018-07-12T18:51:37.782Z,14.60
2018-07-12T18:54:08.525Z,14.77
2018-07-12T18:56:39.683Z,16.47
2018-07-12T18:59:12.561Z,16.93
2018-07-12T19:01:45.661Z,16.03
2018-07-12T19:04:22.646Z,12.87
2018-07-12T19:06:55.469Z,14.83
2018-07-12T19:09:41.358Z,14.63
2018-07-12T19:12:12.393Z,15.00
2018-07-12T19:14:43.768Z,18.43
2018-07-12T19:17:14.314Z,15.77
2018-07-12T19:19:45.353Z,16.53
2018-07-12T19:22:15.910Z,17.77
2018-07-12T19:24:46.990Z,24.27
2018-07-12T19:27:17.607Z,19.53
2018-07-12T19:29:48.351Z,25.97
2018-07-12T19:32:18.876Z,20.50
2018-07-12T19:34:49.794Z,19.90
2018-07-12T19:37:20.726Z,18.47
2018-07-12T19:39:51.298Z,18.87
2018-07-12T19:42:21.833Z,24.93
2018-07-12T19:44:52.553Z,20.03
2018-07-12T19:47:23.229Z,26.33
2018-07-12T19:49:54.244Z,23.00
2018-07-12T19:52:25.104Z,24.60
2018-07-12T19:54:56.816Z,25.80
2018-07-12T19:57:27.413Z,28.30
2018-07-12T19:59:58.292Z,18.73
2018-07-12T20:02:32.592Z,21.03
2018-07-12T20:05:03.377Z,21.40
2018-07-12T20:07:33.957Z,23.43
2018-07-12T20:10:05.300Z,24.40
2018-07-12T20:12:35.835Z,26.53
2018-07-12T20:15:06.677Z,25.07
2018-07-12T20:17:37.274Z,26.73
2018-07-12T20:20:08.968Z,27.03
2018-07-12T20:22:40.222Z,27.70
2018-07-12T20:25:11.271Z,28.47
2018-07-12T20:27:42.853Z,25.93
2018-07-12T20:30:14.785Z,27.53
2018-07-12T20:32:46.780Z,25.30
2018-07-12T20:35:17.875Z,28.80
2018-07-12T20:37:50.400Z,29.57
2018-07-12T20:40:23.181Z,23.40
2018-07-12T20:42:53.817Z,31.40
2018-07-12T20:45:24.557Z,30.30
2018-07-12T20:47:55.526Z,26.40
2018-07-12T20:50:26.285Z,27.13
2018-07-12T20:52:56.833Z,32.83
2018-07-12T20:55:28.587Z,32.50
2018-07-12T20:57:59.821Z,32.10
2018-07-12T21:00:30.970Z,30.63
2018-07-12T21:03:02.075Z,32.80
2018-07-12T21:05:32.676Z,29.83
2018-07-12T21:08:03.307Z,33.63
2018-07-12T21:10:34.482Z,31.73
2018-07-12T21:13:05.085Z,33.77
2018-07-12T21:15:35.726Z,29.40
2018-07-12T21:18:06.822Z,30.13
2018-07-12T21:20:37.557Z,33.90
2018-07-12T21:23:08.659Z,24.03
2018-07-12T21:25:40.018Z,27.13
2018-07-12T21:28:10.586Z,27.30
2018-07-12T21:30:41.125Z,26.27
2018-07-12T21:33:12.150Z,25.83
2018-07-12T21:35:42.781Z,28.93
2018-07-12T21:38:13.334Z,23.37
2018-07-12T21:40:44.473Z,28.77
2018-07-12T21:43:14.981Z,31.10
2018-07-12T21:45:45.853Z,27.23
2018-07-12T21:48:16.806Z,25.43
2018-07-12T21:50:47.684Z,30.63
2018-07-12T21:53:18.503Z,26.30
2018-07-12T21:55:49.665Z,32.97
2018-07-12T21:58:20.257Z,31.70
2018-07-12T22:00:50.936Z,30.83
2018-07-12T22:03:22.230Z,26.77
2018-07-12T22:05:52.972Z,26.83
2018-07-12T22:08:24.665Z,25.00
2018-07-12T22:10:57.362Z,27.97
2018-07-12T22:13:28.913Z,28.27
2018-07-12T22:15:59.553Z,34.23
2018-07-12T22:18:30.532Z,27.53
2018-07-12T22:21:01.465Z,24.90
2018-07-12T22:23:32.029Z,30.03
2018-07-12T22:26:03.252Z,25.13
2018-07-12T22:28:33.817Z,29.93
2018-07-12T22:31:04.385Z,33.20
2018-07-12T22:33:35.425Z,33.77
2018-07-12T22:36:06.233Z,30.37
2018-07-12T22:38:36.837Z,27.10
2018-07-12T22:41:07.980Z,24.50
2018-07-12T22:43:38.526Z,27.60
2018-07-12T22:46:09.392Z,29.90
2018-07-12T22:48:40.559Z,25.30
2018-07-12T22:51:11.338Z,29.93
2018-07-12T22:53:41.904Z,22.77
2018-07-12T22:56:12.993Z,26.07
2018-07-12T22:58:43.715Z,26.57
2018-07-12T23:01:14.385Z,26.00
2018-07-12T23:03:46.369Z,26.77
2018-07-12T23:06:16.926Z,28.33
2018-07-12T23:08:49.800Z,24.10
2018-07-12T23:11:20.825Z,29.90
2018-07-12T23:13:51.401Z,27.23
2018-07-12T23:16:22.337Z,23.33
2018-07-12T23:18:52.849Z,28.40
2018-07-12T23:21:23.705Z,33.03
2018-07-12T23:23:54.281Z,27.10
2018-07-12T23:26:25.485Z,30.60
2018-07-12T23:28:56.009Z,32.77
2018-07-12T23:31:26.573Z,32.60
2018-07-12T23:33:57.533Z,30.50
2018-07-12T23:36:28.057Z,23.97
2018-07-12T23:38:58.714Z,27.20
2018-07-12T23:41:30.126Z,28.17
2018-07-12T23:44:00.676Z,30.37
2018-07-12T23:46:31.662Z,28.50
2018-07-12T23:49:02.861Z,25.70
2018-07-12T23:51:34.003Z,28.43
2018-07-12T23:54:04.701Z,26.70
2018-07-12T23:56:35.849Z,34.83
2018-07-12T23:59:06.513Z,26.13
